Time;durP1;ratioP1;P1;durP2;ratioP2;P2;SDS_P1;SDS_P2;PMS_P1;PMS_P2;Temp;Humidity;BMP_temperature;BMP_pressure;BME280_temperature;BME280_humidity;BME280_pressure;Samples;Min_cycle;Max_cycle;Signal;HPM_P1;HPM_P2
2023/01/03 00:01:38;;;;;;;3.80;1.92;;;5.60;99.90;;;;;;4852913;29;20046;-72
2023/01/03 00:04:04;;;;;;;3.50;1.92;;;5.60;99.90;;;;;;4840758;29;20148;-72
2023/01/03 00:06:36;;;;;;;6.78;2.60;;;5.60;99.90;;;;;;4839485;29;20121;-71
2023/01/03 00:09:05;;;;;;;4.95;2.17;;;5.60;99.90;;;;;;4853897;29;20051;-72
2023/01/03 00:14:20;;;;;;;3.70;1.90;;;5.60;99.90;;;;;;4854233;29;20505;-72
2023/01/03 00:16:50;;;;;;;3.13;1.80;;;5.60;99.90;;;;;;4854116;29;20829;-72
2023/01/03 00:19:16;;;;;;;4.15;1.73;;;5.70;99.90;;;;;;4853699;29;20132;-72
2023/01/03 00:21:42;;;;;;;3.72;1.75;;;5.70;99.90;;;;;;4854522;29;20066;-71
2023/01/03 00:24:09;;;;;;;3.47;1.65;;;5.60;99.90;;;;;;4837506;29;20052;-70
2023/01/03 00:26:35;;;;;;;3.35;1.60;;;5.60;99.90;;;;;;4854331;29;20069;-71
2023/01/03 00:29:01;;;;;;;;;;;5.60;99.90;;;;;;4852695;29;20041;-71
2023/01/03 00:31:27;;;;;;;4.40;1.80;;;5.60;99.90;;;;;;4838791;29;20417;-71
2023/01/03 00:33:52;;;;;;;6.18;1.77;;;5.60;99.90;;;;;;4854653;29;20045;-72
2023/01/03 00:36:21;;;;;;;3.85;1.85;;;5.70;99.90;;;;;;4854179;29;20097;-71
2023/01/03 00:38:47;;;;;;;5.50;1.90;;;5.70;99.90;;;;;;4853683;29;20053;-71
2023/01/03 00:41:15;;;;;;;6.65;2.15;;;5.70;99.90;;;;;;4854646;29;20041;-71
2023/01/03 00:43:45;;;;;;;3.42;1.50;;;5.80;99.90;;;;;;4854696;29;20051;-71
2023/01/03 00:46:12;;;;;;;5.03;1.80;;;5.80;99.90;;;;;;4840255;29;20073;-75
2023/01/03 00:48:38;;;;;;;2.78;1.52;;;5.80;99.90;;;;;;4858285;29;20597;-76
2023/01/03 00:51:18;;;;;;;5.63;1.83;;;5.80;99.90;;;;;;4837587;29;20037;-75
2023/01/03 00:53:46;;;;;;;3.45;2.15;;;5.80;99.90;;;;;;4852420;29;20114;-70
2023/01/03 00:56:14;;;;;;;3.97;1.70;;;5.80;99.90;;;;;;4854585;29;20081;-72
2023/01/03 00:58:40;;;;;;;5.25;1.83;;;5.80;99.90;;;;;;4854552;29;20048;-71
2023/01/03 01:01:18;;;;;;;6.13;1.92;;;5.80;99.90;;;;;;4853996;29;20462;-72
2023/01/03 01:03:46;;;;;;;5.10;1.60;;;5.80;99.90;;;;;;4854272;29;20049;-71
2023/01/03 01:06:18;;;;;;;4.60;2.10;;;5.80;99.90;;;;;;4838443;29;21820;-72
2023/01/03 01:08:45;;;;;;;3.97;1.80;;;5.80;99.90;;;;;;4853175;29;20081;-71
2023/01/03 01:11:11;;;;;;;;;;;5.70;99.90;;;;;;4853229;29;20041;-71
2023/01/03 01:13:37;;;;;;;6.20;1.63;;;5.70;99.90;;;;;;4853860;29;19927;-71
2023/01/03 01:16:12;;;;;;;1.90;1.40;;;5.60;99.90;;;;;;4852697;29;20053;-71
2023/01/03 01:18:39;;;;;;;3.22;1.42;;;5.60;99.90;;;;;;4837396;29;20057;-71
2023/01/03 01:21:06;;;;;;;3.15;1.15;;;5.60;99.90;;;;;;4853812;29;20073;-71
2023/01/03 01:23:35;;;;;;;2.20;1.35;;;5.60;99.90;;;;;;4855245;29;20516;-76
2023/01/03 01:26:02;;;;;;;3.28;1.45;;;5.60;99.90;;;;;;4856967;29;20062;-76
2023/01/03 01:28:28;;;;;;;3.08;1.20;;;5.60;99.90;;;;;;4839393;29;20384;-76
2023/01/03 01:30:56;;;;;;;3.33;1.60;;;5.60;99.90;;;;;;4856753;29;20193;-75
2023/01/03 01:33:22;;;;;;;5.65;1.98;;;5.60;99.90;;;;;;4838998;29;20124;-76
2023/01/03 01:35:47;;;;;;;4.43;1.40;;;5.50;99.90;;;;;;4837793;29;20838;-76
2023/01/03 01:38:13;;;;;;;3.92;1.20;;;5.50;99.90;;;;;;4841140;29;20049;-76
2023/01/03 01:40:39;;;;;;;2.95;1.15;;;5.50;99.90;;;;;;4839833;29;20056;-76
2023/01/03 01:46:31;;;;;;;3.03;1.52;;;5.50;99.90;;;;;;4856092;29;20041;-76
2023/01/03 01:49:03;;;;;;;3.45;1.60;;;5.50;99.90;;;;;;4855401;29;20487;-75
2023/01/03 01:51:32;;;;;;;3.40;1.42;;;5.50;99.90;;;;;;4856802;29;20041;-76
2023/01/03 01:54:00;;;;;;;4.05;1.60;;;5.50;99.90;;;;;;4838093;29;20093;-75
2023/01/03 01:56:38;;;;;;;3.17;1.55;;;5.50;99.90;;;;;;4854015;29;20045;-75
2023/01/03 01:59:10;;;;;;;4.43;1.92;;;5.50;99.90;;;;;;4855971;29;20065;-76
2023/01/03 02:01:37;;;;;;;2.63;1.40;;;5.50;99.90;;;;;;4854870;29;20049;-75
2023/01/03 02:04:06;;;;;;;3.60;1.63;;;5.50;99.90;;;;;;4855779;29;20046;-76
2023/01/03 02:06:32;;;;;;;4.03;1.60;;;5.50;99.90;;;;;;4839819;29;20025;-76
2023/01/03 02:08:58;;;;;;;2.50;1.70;;;5.50;99.90;;;;;;4854351;29;20049;-75
2023/01/03 02:11:39;;;;;;;2.72;1.80;;;5.50;99.90;;;;;;4857078;29;20109;-77
2023/01/03 02:14:41;;;;;;;5.60;2.00;;;5.40;99.90;;;;;;4842896;29;20037;-77
2023/01/03 02:17:19;;;;;;;2.75;2.00;;;5.30;99.90;;;;;;4839014;29;20093;-76
2023/01/03 02:19:59;;;;;;;3.80;2.08;;;5.30;99.90;;;;;;4841107;29;20049;-77
2023/01/03 02:22:59;;;;;;;5.97;2.60;;;5.30;99.90;;;;;;4838560;29;20053;-76
2023/01/03 02:25:51;;;;;;;4.57;2.30;;;5.30;99.90;;;;;;4845039;29;20038;-77
2023/01/03 02:28:34;;;;;;;5.13;1.95;;;5.30;99.90;;;;;;4853121;29;20045;-76
2023/01/03 02:31:15;;;;;;;4.75;2.30;;;5.30;99.90;;;;;;4851680;29;20128;-71
2023/01/03 02:34:04;;;;;;;4.60;2.42;;;5.30;99.90;;;;;;4853676;29;20438;-72
2023/01/03 02:36:32;;;;;;;6.22;2.15;;;5.30;99.90;;;;;;4853315;29;20176;-71
2023/01/03 02:39:21;;;;;;;3.15;2.00;;;5.20;99.90;;;;;;4857154;29;20661;-71
2023/01/03 02:44:55;;;;;;;3.58;2.10;;;5.20;99.90;;;;;;4856105;29;20049;-71
2023/01/03 02:47:24;;;;;;;6.80;2.58;;;5.30;99.90;;;;;;4856238;29;20045;-72
2023/01/03 02:49:51;;;;;;;4.40;2.10;;;5.30;99.90;;;;;;4854835;29;21988;-71
2023/01/03 02:52:25;;;;;;;6.18;2.25;;;5.30;99.90;;;;;;4853039;29;20560;-71
2023/01/03 02:55:06;;;;;;;2.25;1.48;;;5.20;99.90;;;;;;4855860;29;20057;-71
2023/01/03 02:57:41;;;;;;;5.18;2.10;;;5.10;99.90;;;;;;4855047;29;20077;-71
2023/01/03 03:00:14;;;;;;;5.18;2.15;;;5.00;99.90;;;;;;4853695;29;20053;-71
2023/01/03 03:02:44;;;;;;;6.05;2.50;;;5.00;99.90;;;;;;4857049;29;20049;-71
2023/01/03 03:05:17;;;;;;;2.88;1.92;;;4.90;99.90;;;;;;4856348;29;20046;-72
2023/01/03 03:07:43;;;;;;;3.75;1.70;;;4.80;99.90;;;;;;4839393;29;20069;-72
2023/01/03 03:13:12;;;;;;;6.20;2.40;;;4.70;99.90;;;;;;4869725;29;20470;-71
2023/01/03 03:16:00;;;;;;;3.17;2.05;;;4.70;99.90;;;;;;4855094;29;20133;-71
2023/01/03 03:18:46;;;;;;;3.58;2.08;;;4.60;99.90;;;;;;4855260;29;20049;-71
2023/01/03 03:25:07;;;;;;;3.35;1.80;;;4.50;99.90;;;;;;4852896;29;21547;-72
2023/01/03 03:28:33;;;;;;;2.35;1.60;;;4.50;99.90;;;;;;4843863;29;20061;-73
2023/01/03 03:29:57;;;;;;;3.05;1.70;;;4.40;99.90;;;;;;4854108;29;20057;-71
2023/01/03 03:32:25;;;;;;;2.45;1.83;;;4.40;99.90;;;;;;4852320;29;20086;-71
2023/01/03 03:34:53;;;;;;;5.80;2.05;;;4.30;99.90;;;;;;4845709;29;20559;-72
2023/01/03 03:37:22;;;;;;;3.83;2.10;;;4.30;99.90;;;;;;4855157;29;20050;-70
2023/01/03 03:45:40;;;;;;;3.10;1.90;;;4.20;99.90;;;;;;4854100;29;20443;-71
2023/01/03 03:48:30;;;;;;;2.38;1.75;;;4.20;99.90;;;;;;4853751;29;20085;-71
2023/01/03 03:51:09;;;;;;;3.80;2.10;;;4.10;99.90;;;;;;4853556;29;20057;-72
2023/01/03 03:53:38;;;;;;;4.10;2.40;;;4.10;99.90;;;;;;4854337;29;20167;-71
2023/01/03 03:56:11;;;;;;;4.03;2.10;;;4.20;99.90;;;;;;4854460;29;20406;-71
2023/01/03 03:58:40;;;;;;;6.10;2.20;;;4.20;99.90;;;;;;4853869;29;20080;-72
2023/01/03 04:01:11;;;;;;;3.05;1.67;;;4.10;99.90;;;;;;4853841;29;20073;-72
2023/01/03 04:03:43;;;;;;;4.30;1.95;;;4.10;99.90;;;;;;4851836;29;20819;-71
2023/01/03 04:06:16;;;;;;;3.80;1.80;;;4.10;99.90;;;;;;4854562;29;20045;-71
2023/01/03 04:08:42;;;;;;;2.70;1.58;;;4.10;99.90;;;;;;4835672;29;20090;-72
2023/01/03 04:11:07;;;;;;;1.77;1.20;;;4.00;99.90;;;;;;4854632;29;20045;-72
2023/01/03 04:13:35;;;;;;;2.38;1.20;;;4.00;99.90;;;;;;4854991;29;20049;-72
2023/01/03 04:16:01;;;;;;;3.03;1.20;;;3.90;99.90;;;;;;4852563;29;20608;-71
2023/01/03 04:18:27;;;;;;;2.78;1.33;;;3.90;99.90;;;;;;4852614;29;20247;-72
2023/01/03 04:20:52;;;;;;;2.20;1.33;;;3.90;99.90;;;;;;4837046;29;20041;-72
2023/01/03 04:23:18;;;;;;;2.80;1.40;;;3.90;99.90;;;;;;4852457;29;20053;-71
2023/01/03 04:25:44;;;;;;;1.85;1.30;;;3.90;99.90;;;;;;4835707;29;20045;-71
2023/01/03 04:28:09;;;;;;;2.63;1.45;;;3.90;99.90;;;;;;4853560;29;20052;-71
2023/01/03 04:30:35;;;;;;;1.83;1.38;;;3.90;99.90;;;;;;4837897;29;20471;-71
2023/01/03 04:33:04;;;;;;;2.05;1.20;;;4.00;99.90;;;;;;4836170;29;20049;-71
2023/01/03 04:35:33;;;;;;;2.47;1.30;;;4.00;99.90;;;;;;4850756;29;20060;-71
2023/01/03 04:37:59;;;;;;;1.98;1.33;;;4.10;99.90;;;;;;4855364;29;20135;-77
2023/01/03 04:40:25;;;;;;;2.72;1.48;;;4.10;99.90;;;;;;4839396;29;20081;-71
2023/01/03 04:45:37;;;;;;;5.10;2.83;;;4.30;99.90;;;;;;4852567;29;20240;-71
2023/01/03 04:48:04;;;;;;;4.65;2.65;;;4.30;99.90;;;;;;4835203;29;20038;-72
2023/01/03 04:50:30;;;;;;;5.05;2.53;;;4.40;99.90;;;;;;4837339;29;20406;-72
2023/01/03 04:52:56;;;;;;;3.70;2.55;;;4.40;99.90;;;;;;4853686;29;20054;-72
2023/01/03 04:55:23;;;;;;;5.60;3.25;;;4.50;99.90;;;;;;4823893;29;20129;-71
2023/01/03 04:57:49;;;;;;;5.60;3.55;;;4.60;99.90;;;;;;4853860;29;20094;-71
2023/01/03 05:00:16;;;;;;;4.80;3.65;;;4.60;99.90;;;;;;4852984;29;20046;-71
2023/01/03 05:02:41;;;;;;;7.03;4.47;;;4.70;99.90;;;;;;4854515;29;20046;-71
2023/01/03 05:05:11;;;;;;;6.25;4.30;;;4.70;99.90;;;;;;4853752;29;20056;-70
2023/01/03 05:07:36;;;;;;;8.60;4.88;;;4.80;99.90;;;;;;4853413;29;20040;-71
2023/01/03 05:10:02;;;;;;;7.38;5.10;;;4.80;99.90;;;;;;4834677;29;20041;-71
2023/01/03 05:12:28;;;;;;;9.57;5.88;;;4.90;99.90;;;;;;4852983;29;20052;-71
2023/01/03 05:14:54;;;;;;;7.72;5.47;;;4.90;99.90;;;;;;4852154;29;20049;-71
2023/01/03 05:17:20;;;;;;;7.72;4.90;;;5.00;99.90;;;;;;4853519;29;20184;-71
2023/01/03 05:28:00;;;;;;;5.82;3.28;;;4.90;99.90;;;;;;4853515;29;20048;-72
2023/01/03 05:30:26;;;;;;;5.68;3.78;;;5.10;99.90;;;;;;4852947;29;20042;-72
2023/01/03 05:32:52;;;;;;;5.35;4.10;;;5.10;99.90;;;;;;4838421;29;20045;-72
2023/01/03 05:35:18;;;;;;;7.63;4.55;;;5.10;99.90;;;;;;4835522;29;20091;-72
2023/01/03 05:37:43;;;;;;;6.18;4.40;;;5.20;99.90;;;;;;4851555;29;20049;-72
2023/01/03 05:40:09;;;;;;;5.82;4.32;;;5.20;99.90;;;;;;4837299;29;20494;-71
2023/01/03 05:42:35;;;;;;;9.65;4.45;;;5.20;99.90;;;;;;4854565;29;20044;-71
2023/01/03 05:45:01;;;;;;;6.45;4.60;;;5.20;99.90;;;;;;4852010;29;20049;-69
2023/01/03 05:47:27;;;;;;;8.95;5.38;;;5.30;99.90;;;;;;4836241;29;20054;-69
2023/01/03 05:49:52;;;;;;;7.25;5.15;;;5.30;99.90;;;;;;4837601;29;20121;-71
2023/01/03 05:52:21;;;;;;;8.30;5.45;;;5.20;99.90;;;;;;4820539;29;20097;-71
2023/01/03 05:54:47;;;;;;;7.25;4.93;;;5.30;99.90;;;;;;4836490;29;20089;-71
2023/01/03 05:57:12;;;;;;;7.82;5.20;;;5.30;99.90;;;;;;4835213;29;20532;-71
2023/01/03 05:59:41;;;;;;;6.75;4.68;;;5.30;99.90;;;;;;4851812;29;20484;-71
2023/01/03 06:02:07;;;;;;;6.28;4.63;;;5.20;99.90;;;;;;4853320;29;20045;-71
2023/01/03 06:04:32;;;;;;;6.22;4.55;;;5.30;99.90;;;;;;4822435;29;20089;-71
2023/01/03 06:06:58;;;;;;;9.60;6.28;;;5.20;99.90;;;;;;4853214;29;20466;-71
2023/01/03 06:09:24;;;;;;;9.02;6.65;;;5.30;99.90;;;;;;4852241;29;20060;-71
2023/01/03 06:11:50;;;;;;;10.25;6.18;;;5.30;99.90;;;;;;4853594;29;20041;-71
2023/01/03 06:14:16;;;;;;;9.38;5.90;;;5.30;99.90;;;;;;4851428;29;20060;-71
2023/01/03 06:19:26;;;;;;;8.40;6.20;;;5.30;99.90;;;;;;4849965;29;20096;-70
2023/01/03 06:21:51;;;;;;;9.32;6.32;;;5.30;99.90;;;;;;4851081;29;20073;-70
2023/01/03 06:24:17;;;;;;;8.60;6.10;;;5.40;99.90;;;;;;4850373;29;20384;-76
2023/01/03 06:26:43;;;;;;;8.82;5.88;;;5.40;99.90;;;;;;4851555;29;20052;-70
2023/01/03 06:29:11;;;;;;;8.55;6.03;;;5.30;99.90;;;;;;4852056;29;20065;-71
2023/01/03 06:31:37;;;;;;;9.75;6.53;;;5.30;99.90;;;;;;4846532;29;20049;-71
2023/01/03 06:34:03;;;;;;;11.07;7.05;;;5.30;99.90;;;;;;4848924;29;20086;-71
2023/01/03 06:36:31;;;;;;;10.32;6.05;;;5.30;99.90;;;;;;4849362;29;20093;-71
2023/01/03 06:38:57;;;;;;;8.57;5.88;;;5.20;99.90;;;;;;4846799;29;20414;-71
2023/01/03 06:41:23;;;;;;;9.30;6.47;;;5.30;99.90;;;;;;4810500;29;20299;-71
2023/01/03 06:43:49;;;;;;;9.57;6.13;;;5.30;99.90;;;;;;4850733;29;20101;-71
2023/01/03 06:54:32;;;;;;;10.73;7.00;;;5.20;99.90;;;;;;4861901;29;20069;-72
2023/01/03 06:56:58;;;;;;;9.52;6.38;;;5.10;99.90;;;;;;4850981;29;20049;-72
2023/01/03 06:59:24;;;;;;;8.93;5.88;;;5.00;99.90;;;;;;4849760;29;20071;-70
2023/01/03 07:01:52;;;;;;;10.77;6.60;;;5.00;99.90;;;;;;4846764;29;20104;-70
2023/01/03 07:04:19;;;;;;;8.20;5.63;;;4.90;99.90;;;;;;4849853;29;20117;-71
2023/01/03 07:06:45;;;;;;;9.48;6.10;;;4.80;99.90;;;;;;4850414;29;20093;-71
2023/01/03 07:09:11;;;;;;;8.18;5.38;;;4.80;99.90;;;;;;4830862;29;20082;-70
2023/01/03 07:11:38;;;;;;;8.27;5.15;;;4.90;99.90;;;;;;4852435;29;20077;-70
2023/01/03 07:14:05;;;;;;;6.82;4.60;;;4.70;99.90;;;;;;4832067;29;20326;-71
2023/01/03 07:16:43;;;;;;;7.93;5.20;;;4.80;99.90;;;;;;4851673;29;20085;-71
2023/01/03 07:19:15;;;;;;;7.47;4.90;;;4.70;99.90;;;;;;4852103;29;20049;-70
2023/01/03 07:21:41;;;;;;;9.48;5.90;;;4.60;99.90;;;;;;4833132;29;20152;-70
2023/01/03 07:24:10;;;;;;;9.70;6.88;;;4.60;99.90;;;;;;4851646;29;20049;-70
2023/01/03 07:26:35;;;;;;;10.32;7.20;;;4.70;99.90;;;;;;4855082;29;20545;-71
2023/01/03 07:29:04;;;;;;;14.63;7.68;;;4.60;99.90;;;;;;4851725;29;20128;-71
2023/01/03 07:31:31;;;;;;;14.55;9.02;;;4.60;99.90;;;;;;4834557;29;20079;-70
2023/01/03 07:33:57;;;;;;;14.43;9.25;;;4.60;99.90;;;;;;4853195;29;20061;-76
2023/01/03 07:36:23;;;;;;;14.65;9.40;;;4.50;99.90;;;;;;4837609;29;20049;-76
2023/01/03 07:38:49;;;;;;;13.95;9.10;;;4.60;99.90;;;;;;4840811;29;20052;-76
2023/01/03 07:41:15;;;;;;;15.23;10.15;;;4.60;99.90;;;;;;4856259;29;20160;-76
2023/01/03 07:43:44;;;;;;;15.40;9.05;;;4.50;99.90;;;;;;4823520;29;20394;-76
2023/01/03 07:46:17;;;;;;;15.80;10.82;;;4.60;99.90;;;;;;4857612;29;20043;-76
2023/01/03 07:48:45;;;;;;;15.82;10.85;;;4.60;99.90;;;;;;4855398;29;20506;-76
2023/01/03 07:51:12;;;;;;;20.52;11.23;;;4.60;99.90;;;;;;4853322;29;20041;-76
2023/01/03 07:53:39;;;;;;;17.73;11.35;;;4.60;99.90;;;;;;4852922;29;20160;-70
2023/01/03 07:56:11;;;;;;;17.55;10.68;;;4.60;99.90;;;;;;4850826;29;20082;-70
2023/01/03 07:58:37;;;;;;;16.58;10.77;;;4.60;99.90;;;;;;4832460;29;20402;-70
2023/01/03 08:01:07;;;;;;;15.25;10.38;;;4.60;99.90;;;;;;4837967;29;20091;-71
2023/01/03 08:03:33;;;;;;;15.55;10.50;;;4.50;99.90;;;;;;4853886;29;20041;-70
2023/01/03 08:06:07;;;;;;;13.98;9.30;;;4.60;99.90;;;;;;4828966;29;20050;-70
2023/01/03 08:08:33;;;;;;;15.40;10.60;;;4.70;99.90;;;;;;4835762;29;20109;-70
2023/01/03 08:13:44;;;;;;;15.85;10.40;;;4.70;99.90;;;;;;4852372;29;20529;-70
2023/01/03 08:16:15;;;;;;;15.20;9.77;;;4.60;99.90;;;;;;4851613;29;20132;-70
2023/01/03 08:18:41;;;;;;;13.82;9.35;;;4.60;99.90;;;;;;4850198;29;20053;-70
2023/01/03 08:21:13;;;;;;;12.70;8.95;;;4.70;99.90;;;;;;4838837;29;20133;-70
2023/01/03 08:23:40;;;;;;;13.77;9.27;;;4.60;99.90;;;;;;4858015;29;20156;-70
2023/01/03 08:26:12;;;;;;;13.40;9.32;;;4.60;99.90;;;;;;4857315;29;20045;-70
2023/01/03 08:28:40;;;;;;;15.20;9.93;;;4.80;99.90;;;;;;4854972;29;20221;-71
2023/01/03 08:31:19;;;;;;;15.50;9.63;;;4.70;99.90;;;;;;4857528;29;20092;-70
2023/01/03 08:33:54;;;;;;;17.17;11.02;;;4.80;99.90;;;;;;4856742;29;20052;-70
2023/01/03 08:36:22;;;;;;;17.45;10.95;;;4.80;99.90;;;;;;4859993;29;20413;-69
2023/01/03 08:39:01;;;;;;;15.98;11.05;;;5.00;99.90;;;;;;4857642;29;20080;-69
2023/01/03 08:41:30;;;;;;;17.60;11.15;;;4.90;99.90;;;;;;4856239;29;20077;-69
2023/01/03 08:43:58;;;;;;;15.80;10.25;;;5.00;99.90;;;;;;4856204;29;20086;-69
2023/01/03 08:46:23;;;;;;;15.63;10.95;;;5.00;99.90;;;;;;4853674;29;20124;-70
2023/01/03 08:48:49;;;;;;;12.25;8.05;;;5.10;99.90;;;;;;4842092;29;20136;-71
2023/01/03 08:51:15;;;;;;;13.50;8.93;;;5.00;99.90;;;;;;4829487;29;20088;-71
2023/01/03 08:53:41;;;;;;;13.57;8.80;;;5.10;99.90;;;;;;4855380;29;20113;-71
2023/01/03 08:56:07;;;;;;;13.02;9.52;;;5.10;99.90;;;;;;4857104;29;20144;-71
2023/01/03 08:58:32;;;;;;;15.93;10.70;;;5.10;99.90;;;;;;4855518;29;20037;-70
2023/01/03 09:01:02;;;;;;;21.35;12.77;;;5.10;99.90;;;;;;4842088;29;20053;-71
2023/01/03 09:03:28;;;;;;;18.88;12.63;;;5.10;99.90;;;;;;4856829;29;20054;-71
2023/01/03 09:05:54;;;;;;;16.83;11.63;;;5.20;99.90;;;;;;4854641;29;20070;-71
2023/01/03 09:08:19;;;;;;;15.55;10.85;;;5.10;99.90;;;;;;4853354;29;20185;-72
2023/01/03 09:10:45;;;;;;;16.08;10.90;;;5.10;99.90;;;;;;4856024;29;20054;-74
2023/01/03 09:13:12;;;;;;;14.63;10.60;;;5.20;99.90;;;;;;4837772;29;20057;-71
2023/01/03 09:15:37;;;;;;;14.82;9.90;;;5.20;99.90;;;;;;4858583;29;20086;-72
2023/01/03 09:18:03;;;;;;;17.27;12.30;;;5.20;99.90;;;;;;4842740;29;20049;-70
2023/01/03 09:20:29;;;;;;;17.30;11.90;;;5.20;99.90;;;;;;4858014;29;20046;-71
2023/01/03 09:22:54;;;;;;;17.50;12.45;;;5.20;99.90;;;;;;4858608;29;20081;-71
2023/01/03 09:25:20;;;;;;;17.13;12.30;;;5.10;99.90;;;;;;4858261;29;20045;-70
2023/01/03 09:27:47;;;;;;;17.48;12.32;;;5.10;99.90;;;;;;4842012;29;20049;-70
2023/01/03 09:30:14;;;;;;;15.82;10.98;;;5.00;99.90;;;;;;4857739;29;20045;-70
2023/01/03 09:32:40;;;;;;;15.77;11.20;;;5.00;99.90;;;;;;4859929;29;20080;-71
2023/01/03 09:35:06;;;;;;;14.75;11.13;;;4.80;99.90;;;;;;4858441;29;20045;-71
2023/01/03 09:37:32;;;;;;;15.07;10.60;;;4.80;99.90;;;;;;4843077;29;20068;-72
2023/01/03 09:39:58;;;;;;;13.38;10.43;;;4.60;99.90;;;;;;4858095;29;20057;-70
2023/01/03 09:45:15;;;;;;;14.27;10.20;;;4.40;99.90;;;;;;4858128;29;20049;-71
2023/01/03 09:47:42;;;;;;;18.58;10.23;;;4.50;99.90;;;;;;4859162;29;20102;-76
2023/01/03 09:50:20;;;;;;;11.13;8.70;;;4.40;99.90;;;;;;4860036;29;20046;-76
2023/01/03 10:04:34;;;;;;;12.15;9.27;;;4.60;99.90;;;;;;4858213;29;20049;-76
2023/01/03 10:07:09;;;;;;;11.32;8.60;;;4.80;99.90;;;;;;4857492;29;20105;-78
2023/01/03 10:09:59;;;;;;;11.65;8.73;;;4.80;99.90;;;;;;4842601;29;20492;-77
2023/01/03 10:12:52;;;;;;;14.55;9.65;;;4.90;99.90;;;;;;4858535;29;20061;-77
2023/01/03 10:15:47;;;;;;;12.45;9.52;;;4.90;99.90;;;;;;4858163;29;20506;-77
2023/01/03 10:18:49;;;;;;;14.07;10.18;;;4.80;99.90;;;;;;4857716;29;20085;-76
2023/01/03 10:21:18;;;;;;;15.95;11.70;;;5.10;99.90;;;;;;4854058;29;20053;-77
2023/01/03 10:23:47;;;;;;;14.23;10.25;;;5.10;99.90;;;;;;4857623;29;20049;-77
2023/01/03 10:26:13;;;;;;;12.43;9.45;;;5.20;99.90;;;;;;4857944;29;20493;-76
2023/01/03 10:28:44;;;;;;;14.52;9.80;;;5.10;99.90;;;;;;4858285;29;20446;-71
2023/01/03 10:31:30;;;;;;;15.57;10.25;;;5.20;99.90;;;;;;4856118;29;20060;-69
2023/01/03 10:33:56;;;;;;;14.43;10.45;;;5.40;99.90;;;;;;4855666;29;20057;-72
2023/01/03 10:36:22;;;;;;;14.50;10.40;;;5.50;99.90;;;;;;4857423;29;20558;-71
2023/01/03 10:39:00;;;;;;;12.52;9.43;;;5.50;99.90;;;;;;4841441;29;20057;-70
2023/01/03 10:41:45;;;;;;;15.65;10.45;;;5.50;99.90;;;;;;4841450;29;20558;-71
2023/01/03 10:44:26;;;;;;;13.05;9.77;;;5.70;99.90;;;;;;4838009;29;20054;-71
2023/01/03 10:46:54;;;;;;;16.77;11.98;;;5.70;99.90;;;;;;4831950;29;20128;-71
2023/01/03 10:49:29;;;;;;;12.13;8.90;;;5.80;99.90;;;;;;4850304;29;20058;-71
2023/01/03 10:52:21;;;;;;;14.90;10.85;;;5.90;99.90;;;;;;4856139;29;20384;-71
2023/01/03 10:54:49;;;;;;;15.43;11.02;;;6.00;99.90;;;;;;4857145;29;20050;-70
2023/01/03 10:57:42;;;;;;;17.90;12.45;;;6.00;99.90;;;;;;4855638;29;20059;-71
2023/01/03 11:00:25;;;;;;;22.20;15.18;;;6.00;99.90;;;;;;4851936;29;20403;-71
2023/01/03 11:02:53;;;;;;;20.95;13.77;;;6.30;99.90;;;;;;4833414;29;20081;-71
2023/01/03 11:05:25;;;;;;;18.80;12.55;;;6.30;99.90;;;;;;4857482;29;20057;-70
2023/01/03 11:08:00;;;;;;;21.13;13.90;;;6.30;99.90;;;;;;4856060;29;20052;-76
2023/01/03 11:10:37;;;;;;;22.20;13.93;;;6.40;99.90;;;;;;4856085;29;20053;-76
2023/01/03 11:13:21;;;;;;;;;;;6.50;99.90;;;;;;4858869;29;20049;-71
2023/01/03 11:15:56;;;;;;;26.48;16.45;;;6.60;99.90;;;;;;4849803;29;19920;-70
2023/01/03 11:18:24;;;;;;;24.05;15.75;;;6.90;99.90;;;;;;4843023;29;20077;-70
2023/01/03 11:20:58;;;;;;;25.50;14.35;;;6.90;99.90;;;;;;4857272;29;20133;-76
2023/01/03 11:23:49;;;;;;;19.95;13.57;;;7.00;99.90;;;;;;4855928;29;20049;-76
2023/01/03 11:26:18;;;;;;;21.45;13.68;;;7.10;99.90;;;;;;4855343;29;20041;-76
2023/01/03 11:28:47;;;;;;;22.27;14.88;;;7.20;99.90;;;;;;4850811;29;20078;-75
2023/01/03 11:31:24;;;;;;;23.27;14.93;;;7.40;99.90;;;;;;4842963;29;20038;-76
2023/01/03 11:33:59;;;;;;;27.17;17.45;;;7.50;99.90;;;;;;4859676;29;20077;-75
2023/01/03 11:36:50;;;;;;;27.42;17.48;;;7.60;99.90;;;;;;4849177;29;20049;-75
2023/01/03 11:39:22;;;;;;;28.05;18.30;;;7.50;99.90;;;;;;4860886;29;20057;-75
2023/01/03 11:42:26;;;;;;;27.00;17.70;;;7.60;99.90;;;;;;4827234;29;20045;-75
2023/01/03 11:45:18;;;;;;;30.55;19.02;;;7.70;99.90;;;;;;4827385;29;20086;-76
2023/01/03 11:48:23;;;;;;;30.23;19.02;;;7.90;99.90;;;;;;4842666;29;20076;-76
2023/01/03 11:50:52;;;;;;;27.98;16.75;;;8.00;99.90;;;;;;4794641;29;20058;-75
2023/01/03 11:53:44;;;;;;;23.88;14.88;;;7.80;99.90;;;;;;4856356;29;20383;-75
2023/01/03 11:56:17;;;;;;;20.08;14.02;;;7.90;99.90;;;;;;4849041;29;20045;-76
2023/01/03 11:58:52;;;;;;;28.48;17.23;;;8.20;99.90;;;;;;4855893;29;20112;-74
2023/01/03 12:02:20;;;;;;;24.60;16.15;;;8.30;99.90;;;;;;4852858;29;20045;-75
2023/01/03 12:05:34;;;;;;;31.42;19.65;;;8.30;99.90;;;;;;4799994;29;20114;-75
2023/01/03 12:08:07;;;;;;;29.98;18.45;;;8.40;99.90;;;;;;4805830;29;20539;-75
2023/01/03 12:10:51;;;;;;;30.05;18.80;;;8.50;99.90;;;;;;4868273;29;20088;-75
2023/01/03 12:13:30;;;;;;;32.20;19.70;;;8.40;99.90;;;;;;4839825;29;20046;-74
2023/01/03 12:16:02;;;;;;;27.83;17.70;;;8.40;99.90;;;;;;4886544;29;20121;-75
2023/01/03 12:18:40;;;;;;;26.60;17.55;;;8.60;99.90;;;;;;4861281;29;20049;-75
2023/01/03 12:21:22;;;;;;;25.17;16.20;;;8.60;99.90;;;;;;4845288;29;20069;-75
2023/01/03 12:24:14;;;;;;;27.45;18.70;;;8.60;99.90;;;;;;4859589;29;20118;-75
2023/01/03 12:26:43;;;;;;;34.75;20.73;;;8.70;99.90;;;;;;4841936;29;20493;-75
2023/01/03 12:29:21;;;;;;;32.22;20.83;;;8.70;99.90;;;;;;4858257;29;20453;-75
2023/01/03 12:31:49;;;;;;;;;;;8.90;99.90;;;;;;4859221;29;20053;-74
2023/01/03 12:34:36;;;;;;;31.23;20.00;;;8.80;99.90;;;;;;4857482;29;20361;-76
2023/01/03 12:37:17;;;;;;;36.65;22.13;;;9.10;99.90;;;;;;4858442;29;20416;-69
2023/01/03 12:39:56;;;;;;;31.95;19.52;;;9.00;99.90;;;;;;4844533;29;20049;-69
2023/01/03 12:42:28;;;;;;;31.90;19.23;;;9.20;99.90;;;;;;4850276;29;20498;-75
2023/01/03 12:45:02;;;;;;;32.88;20.67;;;9.20;99.90;;;;;;4852274;29;20435;-76
2023/01/03 12:47:28;;;;;;;29.13;18.25;;;9.20;99.90;;;;;;4838458;29;20401;-75
2023/01/03 12:50:29;;;;;;;21.42;13.15;;;9.10;99.90;;;;;;4856531;29;20041;-75
2023/01/03 12:53:17;;;;;;;28.90;17.75;;;9.10;99.90;;;;;;4854284;29;20085;-75
2023/01/03 12:56:07;;;;;;;29.80;18.55;;;9.40;99.90;;;;;;4859744;29;20406;-75
2023/01/03 12:59:12;;;;;;;24.83;16.70;;;9.20;99.90;;;;;;4851239;29;20128;-76
2023/01/03 13:01:59;;;;;;;28.42;16.42;;;9.30;99.90;;;;;;4856114;29;20049;-76
2023/01/03 13:04:33;;;;;;;26.55;16.83;;;9.50;99.90;;;;;;4858847;29;20141;-76
2023/01/03 13:07:29;;;;;;;28.75;17.17;;;9.50;99.90;;;;;;4856094;29;20041;-75
2023/01/03 13:10:03;;;;;;;28.30;17.08;;;9.60;99.90;;;;;;4858098;29;20386;-76
2023/01/03 13:12:33;;;;;;;25.55;15.60;;;9.40;99.90;;;;;;4858750;29;20037;-75
2023/01/03 13:15:26;;;;;;;21.80;15.35;;;9.60;99.90;;;;;;4841363;29;20045;-75
2023/01/03 13:17:51;;;;;;;23.17;15.45;;;9.50;99.90;;;;;;4844095;29;20030;-76
2023/01/03 13:20:29;;;;;;;20.13;13.30;;;9.70;99.90;;;;;;4855866;29;20228;-76
2023/01/03 13:23:19;;;;;;;23.52;14.52;;;9.60;99.90;;;;;;4840348;29;20140;-70
2023/01/03 13:26:05;;;;;;;21.02;13.98;;;9.50;99.90;;;;;;4804324;29;20049;-69
2023/01/03 13:28:32;;;;;;;19.50;12.98;;;9.50;99.90;;;;;;4854526;29;20056;-70
2023/01/03 13:31:14;;;;;;;22.70;14.10;;;9.60;99.90;;;;;;4837604;29;20566;-70
2023/01/03 13:33:52;;;;;;;23.38;14.60;;;9.80;99.90;;;;;;4858243;29;20109;-70
2023/01/03 13:36:19;;;;;;;16.95;11.32;;;9.80;99.90;;;;;;4857699;29;20092;-70
2023/01/03 13:38:45;;;;;;;20.65;12.73;;;9.70;99.90;;;;;;4856195;29;20155;-71
2023/01/03 13:41:37;;;;;;;17.48;12.05;;;9.90;99.90;;;;;;4842109;29;20474;-70
2023/01/03 13:44:19;;;;;;;17.35;11.95;;;9.70;99.90;;;;;;4848420;29;20058;-76
2023/01/03 13:46:46;;;;;;;15.80;11.50;;;9.90;99.90;;;;;;4840102;29;20085;-76
2023/01/03 13:49:27;;;;;;;15.57;10.93;;;9.80;99.90;;;;;;4849086;29;20045;-75
2023/01/03 13:51:55;;;;;;;19.45;11.07;;;10.00;99.90;;;;;;4856862;29;20057;-75
2023/01/03 13:54:21;;;;;;;16.42;11.85;;;9.90;99.90;;;;;;4855619;29;20168;-76
2023/01/03 13:56:46;;;;;;;19.05;11.90;;;9.90;99.90;;;;;;4854108;29;20692;-76
2023/01/03 13:59:18;;;;;;;16.85;11.57;;;10.00;99.90;;;;;;4839164;29;20052;-75
2023/01/03 14:02:05;;;;;;;14.77;10.73;;;10.00;99.90;;;;;;4837977;29;20049;-75
2023/01/03 14:04:52;;;;;;;19.55;12.52;;;10.00;99.90;;;;;;4853828;29;20089;-75
2023/01/03 14:07:46;;;;;;;20.08;13.13;;;10.00;99.90;;;;;;4855453;29;20502;-75
2023/01/03 14:10:26;;;;;;;18.17;11.60;;;9.80;99.90;;;;;;4841449;29;20050;-76
2023/01/03 14:13:04;;;;;;;20.92;12.43;;;9.90;99.90;;;;;;4852027;29;20052;-75
2023/01/03 14:15:31;;;;;;;17.13;12.13;;;9.90;99.90;;;;;;4858686;29;20060;-76